Time;durP1;ratioP1;P1;durP2;ratioP2;P2;SDS_P1;SDS_P2;PMS_P1;PMS_P2;Temp;Humidity;BMP_temperature;BMP_pressure;BME280_temperature;BME280_humidity;BME280_pressure;Samples;Min_cycle;Max_cycle;Signal;HPM_P1;HPM_P2
2024/01/03 00:00:34;;;;;;;2.33;0.70;;;8.70;99.90;;;;;;5044585;28;20399;-64
2024/01/03 00:03:00;;;;;;;5.90;1.25;;;8.70;99.90;;;;;;5043361;28;20049;-64
2024/01/03 00:05:31;;;;;;;1.77;0.52;;;8.60;99.90;;;;;;5027332;28;20383;-65
2024/01/03 00:07:57;;;;;;;2.03;0.68;;;8.60;99.90;;;;;;5043403;28;20056;-65
2024/01/03 00:10:41;;;;;;;3.42;0.60;;;8.50;99.90;;;;;;5027778;28;20536;-64
2024/01/03 00:13:29;;;;;;;2.33;0.55;;;8.50;99.90;;;;;;5032772;28;20052;-64
2024/01/03 00:16:01;;;;;;;6.93;0.75;;;8.50;99.90;;;;;;5041003;28;20033;-64
2024/01/03 00:18:43;;;;;;;5.18;0.93;;;8.40;99.90;;;;;;5045304;28;20055;-65
2024/01/03 00:21:10;;;;;;;6.95;1.25;;;8.40;99.90;;;;;;5044620;28;20041;-64
2024/01/03 00:23:38;;;;;;;5.38;0.80;;;8.40;99.90;;;;;;5029085;28;20202;-65
2024/01/03 00:26:09;;;;;;;10.82;1.23;;;8.40;99.90;;;;;;5023436;28;20129;-65
2024/01/03 00:28:34;;;;;;;5.88;0.93;;;8.40;99.90;;;;;;5044392;28;20064;-64
2024/01/03 00:31:01;;;;;;;13.02;1.45;;;8.30;99.90;;;;;;5057495;28;20037;-64
2024/01/03 00:33:27;;;;;;;6.40;1.27;;;8.40;99.90;;;;;;5042973;28;20501;-65
2024/01/03 00:35:53;;;;;;;5.03;0.63;;;8.30;99.90;;;;;;5049277;28;20700;-64
2024/01/03 00:38:19;;;;;;;1.95;0.70;;;8.30;99.90;;;;;;5030423;28;20041;-65
2024/01/03 00:40:55;;;;;;;2.33;0.73;;;8.30;99.90;;;;;;5045920;28;20555;-64
2024/01/03 00:43:20;;;;;;;3.30;1.00;;;8.40;99.90;;;;;;5033156;28;20075;-64
2024/01/03 00:45:48;;;;;;;9.98;1.65;;;8.30;99.90;;;;;;5055252;28;20087;-64
2024/01/03 00:48:18;;;;;;;2.47;1.13;;;8.30;99.90;;;;;;5028789;28;20037;-65
2024/01/03 00:50:43;;;;;;;6.30;1.08;;;8.30;99.90;;;;;;5055695;28;20052;-65
2024/01/03 00:53:11;;;;;;;5.53;0.85;;;8.30;99.90;;;;;;5045633;28;20176;-65
2024/01/03 00:55:37;;;;;;;3.20;0.68;;;8.30;99.90;;;;;;5061066;28;20053;-64
2024/01/03 00:58:04;;;;;;;6.35;1.20;;;8.30;99.90;;;;;;5047818;28;20041;-64
2024/01/03 01:00:30;;;;;;;3.90;0.90;;;8.30;99.90;;;;;;5057583;28;20514;-65
2024/01/03 01:02:56;;;;;;;5.00;0.75;;;8.20;99.90;;;;;;5043605;28;20122;-65
2024/01/03 01:05:22;;;;;;;4.68;0.98;;;8.20;99.90;;;;;;5002851;28;20048;-64
2024/01/03 01:07:47;;;;;;;2.88;0.73;;;8.20;99.90;;;;;;5044698;28;20049;-64
2024/01/03 01:10:13;;;;;;;1.08;0.40;;;8.20;99.90;;;;;;5051215;28;20434;-64
2024/01/03 01:12:39;;;;;;;10.30;1.23;;;8.20;99.90;;;;;;5042812;28;20513;-65
2024/01/03 01:15:05;;;;;;;5.32;0.88;;;8.10;99.90;;;;;;5026265;28;20080;-65
2024/01/03 01:17:30;;;;;;;11.60;0.90;;;8.20;99.90;;;;;;5043311;28;20131;-65
2024/01/03 01:19:56;;;;;;;0.65;0.65;;;8.20;99.90;;;;;;5028739;28;20451;-65
2024/01/03 01:22:23;;;;;;;8.07;1.25;;;8.10;99.90;;;;;;5041182;28;20041;-65
2024/01/03 01:24:49;;;;;;;6.40;0.52;;;8.10;99.90;;;;;;5042646;28;20053;-65
2024/01/03 01:27:16;;;;;;;3.70;0.75;;;8.10;99.90;;;;;;5044027;28;20553;-65
2024/01/03 01:29:41;;;;;;;1.17;0.32;;;8.10;99.90;;;;;;5042137;28;20045;-64
2024/01/03 01:32:07;;;;;;;4.35;0.80;;;8.10;99.90;;;;;;5026276;28;20040;-65
2024/01/03 01:34:33;;;;;;;7.53;1.17;;;8.10;99.90;;;;;;5041607;28;20129;-64
2024/01/03 01:36:58;;;;;;;2.35;0.60;;;8.10;99.90;;;;;;5014486;28;20037;-65
2024/01/03 01:39:24;;;;;;;3.63;0.65;;;8.10;99.90;;;;;;5038709;28;20503;-65
2024/01/03 01:41:50;;;;;;;5.38;1.05;;;8.10;99.90;;;;;;5026422;28;20484;-65
2024/01/03 01:44:15;;;;;;;5.85;0.73;;;8.10;99.90;;;;;;5044520;28;20095;-64
2024/01/03 01:46:43;;;;;;;2.22;0.93;;;8.10;99.90;;;;;;5054755;28;20041;-65
2024/01/03 01:49:10;;;;;;;6.43;1.10;;;8.10;99.90;;;;;;5036152;28;20044;-64
2024/01/03 01:51:38;;;;;;;3.97;0.77;;;8.10;99.90;;;;;;5035918;28;20052;-65
2024/01/03 01:54:04;;;;;;;8.75;1.35;;;8.10;99.90;;;;;;5059543;28;20041;-65
2024/01/03 01:56:32;;;;;;;12.38;1.35;;;8.10;99.90;;;;;;5047453;28;20057;-64
2024/01/03 01:58:58;;;;;;;4.03;0.50;;;8.10;99.90;;;;;;5056504;28;20090;-65
2024/01/03 02:01:25;;;;;;;2.60;0.80;;;8.10;99.90;;;;;;5045992;28;20120;-65
2024/01/03 02:03:52;;;;;;;9.82;1.02;;;8.10;99.90;;;;;;5045920;28;20088;-64
2024/01/03 02:06:20;;;;;;;6.20;1.08;;;8.10;99.90;;;;;;5050827;28;20129;-65
2024/01/03 02:08:47;;;;;;;1.45;0.77;;;8.10;99.90;;;;;;5034236;28;20410;-64
2024/01/03 02:11:13;;;;;;;10.80;0.82;;;8.10;99.90;;;;;;5031878;28;20113;-64
2024/01/03 02:13:39;;;;;;;4.50;0.98;;;8.10;99.90;;;;;;5014284;28;20380;-64
2024/01/03 02:16:05;;;;;;;7.20;0.95;;;8.20;99.90;;;;;;5041851;28;20041;-64
2024/01/03 02:18:31;;;;;;;4.35;0.90;;;8.20;99.90;;;;;;5042235;28;20510;-64
2024/01/03 02:20:57;;;;;;;3.35;0.88;;;8.20;99.90;;;;;;5042049;28;20525;-64
2024/01/03 02:23:23;;;;;;;3.70;0.95;;;8.20;99.90;;;;;;5043064;28;20387;-64
2024/01/03 02:25:50;;;;;;;2.63;0.70;;;8.20;99.90;;;;;;5041178;28;20049;-65
2024/01/03 02:28:16;;;;;;;12.25;1.58;;;8.20;99.90;;;;;;5042554;28;20061;-64
2024/01/03 02:30:44;;;;;;;5.30;1.52;;;8.20;99.90;;;;;;5040242;28;20048;-64
2024/01/03 02:33:11;;;;;;;1.85;0.85;;;8.20;99.90;;;;;;5029305;28;20533;-66
2024/01/03 02:35:37;;;;;;;1.63;0.55;;;8.30;99.90;;;;;;5045712;28;20124;-65
2024/01/03 02:38:03;;;;;;;5.32;1.30;;;8.20;99.90;;;;;;5024540;28;20415;-65
2024/01/03 02:40:29;;;;;;;1.33;0.32;;;8.30;99.90;;;;;;5041398;28;20069;-64
2024/01/03 02:42:55;;;;;;;6.88;1.17;;;8.20;99.90;;;;;;5041735;28;20395;-64
2024/01/03 02:45:20;;;;;;;4.18;0.47;;;8.20;99.90;;;;;;5041827;28;20041;-64
2024/01/03 02:47:46;;;;;;;9.15;1.17;;;8.30;99.90;;;;;;5018746;28;20564;-64
2024/01/03 02:50:11;;;;;;;4.70;1.02;;;8.30;99.90;;;;;;5042594;28;20119;-64
2024/01/03 02:52:37;;;;;;;10.88;1.35;;;8.30;99.90;;;;;;5041321;28;20053;-64
2024/01/03 02:55:03;;;;;;;3.85;0.80;;;8.40;99.90;;;;;;5041914;28;20061;-64
2024/01/03 02:57:29;;;;;;;2.00;0.50;;;8.30;99.90;;;;;;4988597;28;20070;-64
2024/01/03 02:59:55;;;;;;;10.18;1.17;;;8.40;99.90;;;;;;5041058;28;20041;-65
2024/01/03 03:02:21;;;;;;;3.05;0.47;;;8.40;99.90;;;;;;5048888;28;20091;-64
2024/01/03 03:04:46;;;;;;;4.97;0.93;;;8.40;99.90;;;;;;5050864;28;20577;-65
2024/01/03 03:07:12;;;;;;;3.25;0.95;;;8.40;99.90;;;;;;5042701;28;20048;-64
2024/01/03 03:09:38;;;;;;;7.45;1.00;;;8.40;99.90;;;;;;5044558;28;20479;-65
2024/01/03 03:12:04;;;;;;;5.13;1.02;;;8.50;99.90;;;;;;5048021;28;20069;-65
2024/01/03 03:14:30;;;;;;;5.22;1.40;;;8.50;99.90;;;;;;5041319;28;20041;-64
2024/01/03 03:16:55;;;;;;;4.60;0.93;;;8.50;99.90;;;;;;5043767;28;20048;-65
2024/01/03 03:19:21;;;;;;;4.55;1.25;;;8.50;99.90;;;;;;5044286;28;20074;-65
2024/01/03 03:21:47;;;;;;;5.82;0.98;;;8.50;99.90;;;;;;5042697;28;20087;-65
2024/01/03 03:24:12;;;;;;;6.82;1.08;;;8.50;99.90;;;;;;5027414;28;20535;-64
2024/01/03 03:26:38;;;;;;;7.30;0.68;;;8.50;99.90;;;;;;5040046;28;20130;-64
2024/01/03 03:29:03;;;;;;;1.33;0.70;;;8.60;99.90;;;;;;5046999;28;20462;-64
2024/01/03 03:31:29;;;;;;;7.75;1.50;;;8.60;99.90;;;;;;5041769;28;20049;-64
2024/01/03 03:33:55;;;;;;;2.03;1.15;;;8.60;99.90;;;;;;5046888;28;20120;-65
2024/01/03 03:36:21;;;;;;;7.13;0.85;;;8.60;99.90;;;;;;5046114;28;20101;-64
2024/01/03 03:38:47;;;;;;;8.07;1.77;;;8.70;99.90;;;;;;5035214;28;20045;-64
2024/01/03 03:41:13;;;;;;;7.65;1.40;;;8.70;99.90;;;;;;5047082;28;20483;-64
2024/01/03 03:43:39;;;;;;;3.35;0.90;;;8.70;99.90;;;;;;5045067;28;20037;-64
2024/01/03 03:46:06;;;;;;;11.52;1.98;;;8.70;99.90;;;;;;5016343;28;20511;-64
2024/01/03 03:48:32;;;;;;;9.80;1.33;;;8.80;99.90;;;;;;5044149;28;20499;-64
2024/01/03 03:50:59;;;;;;;4.00;0.90;;;8.80;99.90;;;;;;5027732;28;20053;-64
2024/01/03 03:53:24;;;;;;;4.40;1.17;;;8.90;99.90;;;;;;5045667;28;20080;-64
2024/01/03 03:55:50;;;;;;;7.40;1.58;;;8.80;99.90;;;;;;5045247;28;20400;-64
2024/01/03 03:58:15;;;;;;;5.85;1.02;;;8.80;99.90;;;;;;5046836;28;20041;-64
2024/01/03 04:00:41;;;;;;;1.77;0.60;;;8.80;99.90;;;;;;5043968;28;20044;-64
2024/01/03 04:03:08;;;;;;;2.10;0.60;;;8.90;99.90;;;;;;5046318;28;20051;-64
2024/01/03 04:05:35;;;;;;;1.42;0.63;;;8.90;99.90;;;;;;5044349;28;20056;-64
2024/01/03 04:08:01;;;;;;;4.30;1.05;;;9.00;99.90;;;;;;5045926;28;20226;-64
2024/01/03 04:10:27;;;;;;;3.50;0.95;;;9.00;99.90;;;;;;5043730;28;20656;-64
2024/01/03 04:12:52;;;;;;;1.90;0.55;;;9.00;99.90;;;;;;5027299;28;20044;-64
2024/01/03 04:15:19;;;;;;;1.23;0.75;;;9.00;99.90;;;;;;5044989;28;20136;-64
2024/01/03 04:17:45;;;;;;;2.33;0.65;;;9.00;99.90;;;;;;5026387;28;20056;-64
2024/01/03 04:20:11;;;;;;;1.42;0.65;;;9.00;99.90;;;;;;5044460;28;20406;-64
2024/01/03 04:22:37;;;;;;;1.60;0.80;;;9.00;99.90;;;;;;5043457;28;20049;-64
2024/01/03 04:25:03;;;;;;;7.50;1.30;;;9.00;99.90;;;;;;5045226;28;20053;-64
2024/01/03 04:27:29;;;;;;;0.47;0.45;;;9.00;99.90;;;;;;5043530;28;20037;-64
2024/01/03 04:29:55;;;;;;;3.83;0.85;;;9.00;99.90;;;;;;5026889;28;20037;-64
2024/01/03 04:32:20;;;;;;;1.48;0.85;;;9.00;99.90;;;;;;5042974;28;20053;-64
2024/01/03 04:34:46;;;;;;;3.25;0.90;;;9.00;99.90;;;;;;5025998;28;20045;-64
2024/01/03 04:37:12;;;;;;;1.90;0.60;;;9.00;99.90;;;;;;5045263;28;20037;-64
2024/01/03 04:39:37;;;;;;;5.00;0.70;;;8.90;99.90;;;;;;5042768;28;20143;-64
2024/01/03 04:42:04;;;;;;;1.20;0.47;;;9.00;99.90;;;;;;5026424;28;20106;-64
2024/01/03 04:44:29;;;;;;;2.92;0.68;;;9.00;99.90;;;;;;5006710;28;20084;-64
2024/01/03 04:46:55;;;;;;;5.75;0.90;;;9.00;99.90;;;;;;5044771;28;20076;-64
2024/01/03 04:49:21;;;;;;;2.85;0.63;;;9.00;99.90;;;;;;5025342;28;20485;-64
2024/01/03 04:51:46;;;;;;;3.17;0.30;;;8.90;99.90;;;;;;5043742;28;20037;-64
2024/01/03 04:54:12;;;;;;;5.95;0.77;;;9.00;99.90;;;;;;5044247;28;20047;-64
2024/01/03 04:56:38;;;;;;;1.85;0.47;;;9.00;99.90;;;;;;5044069;28;20233;-64
2024/01/03 04:59:03;;;;;;;0.98;0.38;;;8.90;99.90;;;;;;5044695;28;20049;-64
2024/01/03 05:01:29;;;;;;;1.17;0.28;;;8.90;99.90;;;;;;5043462;28;20544;-64
2024/01/03 05:03:55;;;;;;;13.85;1.20;;;8.90;99.90;;;;;;5043923;28;20092;-64
2024/01/03 05:06:21;;;;;;;1.95;0.63;;;8.90;99.90;;;;;;5043264;28;20041;-64
2024/01/03 05:08:47;;;;;;;2.53;0.82;;;9.00;99.90;;;;;;5046779;28;20033;-64
2024/01/03 05:11:12;;;;;;;9.77;0.77;;;9.00;99.90;;;;;;5043469;28;20407;-64
2024/01/03 05:13:38;;;;;;;1.23;0.50;;;9.00;99.90;;;;;;5025097;28;20052;-66
2024/01/03 05:16:04;;;;;;;4.70;0.70;;;9.00;99.90;;;;;;5009620;28;20119;-64
2024/01/03 05:18:30;;;;;;;2.08;0.77;;;9.00;99.90;;;;;;5023399;28;20049;-64
2024/01/03 05:20:55;;;;;;;5.05;0.73;;;9.00;99.90;;;;;;5010729;28;20130;-64
2024/01/03 05:23:21;;;;;;;1.95;0.60;;;9.00;99.90;;;;;;5024262;28;20912;-64
2024/01/03 05:25:47;;;;;;;1.88;0.80;;;8.90;99.90;;;;;;5039064;28;20055;-64
2024/01/03 05:28:13;;;;;;;0.47;0.28;;;9.00;99.90;;;;;;5054835;28;20049;-64
2024/01/03 05:30:42;;;;;;;1.17;0.47;;;9.00;99.90;;;;;;5037297;28;20038;-64
2024/01/03 05:33:07;;;;;;;0.47;0.20;;;8.90;99.90;;;;;;5033804;28;20528;-64
2024/01/03 05:35:33;;;;;;;10.00;1.15;;;9.00;99.90;;;;;;5052815;28;20056;-64
2024/01/03 05:37:59;;;;;;;6.45;1.08;;;8.90;99.90;;;;;;5050241;28;20081;-65
2024/01/03 05:40:24;;;;;;;1.17;0.57;;;8.90;99.90;;;;;;5025446;28;20045;-64
2024/01/03 05:42:50;;;;;;;3.33;0.80;;;9.00;99.90;;;;;;5055109;28;20056;-64
2024/01/03 05:45:16;;;;;;;1.30;0.50;;;9.00;99.90;;;;;;5046454;28;20125;-64
2024/01/03 05:47:41;;;;;;;2.83;0.70;;;9.00;99.90;;;;;;5055320;28;20048;-64
2024/01/03 05:50:10;;;;;;;4.00;0.80;;;9.10;99.90;;;;;;5047431;28;20067;-64
2024/01/03 05:52:36;;;;;;;2.53;0.68;;;9.10;99.90;;;;;;5024075;28;20056;-64
2024/01/03 05:55:02;;;;;;;2.75;0.63;;;9.10;99.90;;;;;;5044254;28;20485;-64
2024/01/03 05:57:28;;;;;;;1.38;0.55;;;9.10;99.90;;;;;;5026306;28;20045;-64
2024/01/03 05:59:54;;;;;;;6.72;1.23;;;9.20;99.90;;;;;;5042077;28;20060;-64
2024/01/03 06:02:19;;;;;;;1.98;0.50;;;9.10;99.90;;;;;;5050350;28;20049;-64
2024/01/03 06:04:46;;;;;;;3.47;1.00;;;9.10;99.90;;;;;;5052312;28;20613;-64
2024/01/03 06:07:13;;;;;;;1.70;0.52;;;9.10;99.90;;;;;;5052016;28;20505;-64
2024/01/03 06:09:38;;;;;;;2.83;0.35;;;9.10;99.90;;;;;;5042761;28;20082;-64
2024/01/03 06:12:04;;;;;;;1.55;0.80;;;9.00;99.90;;;;;;5042836;28;20483;-64
2024/01/03 06:14:30;;;;;;;1.95;0.80;;;8.90;99.90;;;;;;5023499;28;20059;-64
2024/01/03 06:16:55;;;;;;;3.85;0.65;;;8.70;99.90;;;;;;5043058;28;20052;-64
2024/01/03 06:19:21;;;;;;;3.95;0.80;;;8.70;99.90;;;;;;5038070;28;20082;-64
2024/01/03 06:21:47;;;;;;;1.42;0.70;;;8.60;99.90;;;;;;5036627;28;20466;-64
2024/01/03 06:24:13;;;;;;;3.45;0.75;;;8.60;99.90;;;;;;5022822;28;20141;-64
2024/01/03 06:26:38;;;;;;;2.03;0.35;;;8.60;99.90;;;;;;5043215;28;20056;-64
2024/01/03 06:29:04;;;;;;;0.25;0.13;;;8.60;99.90;;;;;;5041336;28;20048;-64
2024/01/03 06:31:30;;;;;;;2.65;0.65;;;8.50;99.90;;;;;;5037474;28;20457;-64
2024/01/03 06:33:55;;;;;;;1.02;0.43;;;8.50;99.90;;;;;;5041866;28;20394;-64
2024/01/03 06:36:21;;;;;;;3.70;0.95;;;8.50;99.90;;;;;;5041479;28;20430;-64
2024/01/03 06:38:48;;;;;;;11.63;1.63;;;8.50;99.90;;;;;;5042194;28;20045;-65
2024/01/03 06:41:14;;;;;;;15.50;1.75;;;8.50;99.90;;;;;;5022861;28;20053;-65
2024/01/03 06:43:40;;;;;;;10.10;1.23;;;8.50;99.90;;;;;;5042914;28;20041;-65
2024/01/03 06:46:05;;;;;;;1.70;0.55;;;8.50;99.90;;;;;;5038385;28;20053;-65
2024/01/03 06:48:31;;;;;;;2.40;0.70;;;8.60;99.90;;;;;;5041818;28;20052;-64
2024/01/03 06:50:57;;;;;;;6.53;1.08;;;8.60;99.90;;;;;;5040275;28;20048;-64
2024/01/03 06:53:23;;;;;;;10.25;1.27;;;8.60;99.90;;;;;;5041264;28;20052;-65
2024/01/03 06:55:48;;;;;;;6.15;1.50;;;8.60;99.90;;;;;;5042355;28;20132;-64
2024/01/03 06:58:19;;;;;;;2.05;1.17;;;8.70;99.90;;;;;;5023078;28;20039;-64
2024/01/03 07:00:45;;;;;;;7.28;1.40;;;8.70;99.90;;;;;;5041685;28;21371;-65
2024/01/03 07:03:11;;;;;;;2.22;1.10;;;8.70;99.90;;;;;;5023338;28;20060;-64
2024/01/03 07:05:37;;;;;;;7.75;1.70;;;8.60;99.90;;;;;;5041282;28;20047;-64
2024/01/03 07:08:02;;;;;;;14.02;2.38;;;8.60;99.90;;;;;;5023534;28;20047;-65
2024/01/03 07:10:31;;;;;;;5.05;1.05;;;8.60;99.90;;;;;;5040876;28;20486;-65
2024/01/03 07:13:00;;;;;;;3.90;0.95;;;8.60;99.90;;;;;;5042506;28;20045;-65
2024/01/03 07:15:29;;;;;;;3.38;1.10;;;8.70;99.90;;;;;;5036734;28;20103;-65
2024/01/03 07:17:56;;;;;;;4.28;1.00;;;8.70;99.90;;;;;;5005698;28;20551;-65
2024/01/03 07:20:22;;;;;;;6.15;0.95;;;8.70;99.90;;;;;;5040130;28;20052;-65
2024/01/03 07:22:49;;;;;;;12.30;1.15;;;8.70;99.90;;;;;;5041900;28;20113;-64
2024/01/03 07:25:15;;;;;;;4.18;0.98;;;8.80;99.90;;;;;;5023535;28;20048;-64
2024/01/03 07:27:41;;;;;;;5.00;0.63;;;8.80;99.90;;;;;;5043551;28;20058;-64
2024/01/03 07:30:08;;;;;;;5.20;1.30;;;8.80;99.90;;;;;;5041719;28;20383;-64
2024/01/03 07:32:33;;;;;;;3.53;1.00;;;8.80;99.90;;;;;;5020902;28;20052;-65
2024/01/03 07:34:59;;;;;;;1.52;0.70;;;8.90;99.90;;;;;;5041186;28;20055;-65
2024/01/03 07:37:25;;;;;;;2.00;0.85;;;8.90;99.90;;;;;;5022552;28;20537;-64
2024/01/03 07:39:51;;;;;;;11.35;2.08;;;8.90;99.90;;;;;;5041534;28;20052;-64
2024/01/03 07:42:17;;;;;;;2.50;0.65;;;8.90;99.90;;;;;;5040249;28;20106;-64
2024/01/03 07:44:42;;;;;;;3.42;0.98;;;8.90;99.90;;;;;;5041646;28;20033;-64
2024/01/03 07:47:09;;;;;;;10.68;2.00;;;8.90;99.90;;;;;;5024166;28;20056;-64
2024/01/03 07:49:36;;;;;;;2.35;0.50;;;8.90;99.90;;;;;;5040919;28;20173;-64
2024/01/03 07:52:03;;;;;;;1.35;0.70;;;8.90;99.90;;;;;;5041319;28;20048;-64
2024/01/03 07:54:28;;;;;;;1.45;0.40;;;8.90;99.90;;;;;;5007768;28;20132;-64
2024/01/03 07:56:55;;;;;;;6.70;1.23;;;8.90;99.90;;;;;;5040335;28;20109;-64
2024/01/03 07:59:21;;;;;;;7.80;1.15;;;8.90;99.90;;;;;;5037351;28;20419;-64
2024/01/03 08:01:46;;;;;;;2.75;0.70;;;8.80;99.90;;;;;;5038177;28;20232;-65
2024/01/03 08:04:13;;;;;;;6.55;1.17;;;8.80;99.90;;;;;;5019983;28;20048;-64
2024/01/03 08:06:39;;;;;;;17.33;2.25;;;8.80;99.90;;;;;;5041383;28;20048;-64
2024/01/03 08:09:04;;;;;;;9.32;2.22;;;8.80;99.90;;;;;;5045652;28;20080;-64
2024/01/03 08:11:30;;;;;;;11.25;1.08;;;8.80;99.90;;;;;;5024325;28;20472;-64
2024/01/03 08:13:56;;;;;;;12.05;1.90;;;8.80;99.90;;;;;;5034143;28;20045;-64
2024/01/03 08:16:22;;;;;;;3.70;0.82;;;8.80;99.90;;;;;;5040279;28;20048;-64
2024/01/03 08:18:48;;;;;;;12.27;2.40;;;8.70;99.90;;;;;;5011204;28;20060;-64
2024/01/03 08:21:15;;;;;;;3.67;0.73;;;8.80;99.90;;;;;;5043660;28;20045;-64
2024/01/03 08:23:42;;;;;;;1.98;0.73;;;8.80;99.90;;;;;;5045197;28;20072;-64
2024/01/03 08:26:09;;;;;;;4.50;0.75;;;8.80;99.90;;;;;;5043523;28;20128;-64
2024/01/03 08:28:41;;;;;;;3.42;0.73;;;8.80;99.90;;;;;;5043580;28;20037;-64
2024/01/03 08:31:18;;;;;;;2.20;0.95;;;8.80;99.90;;;;;;5031754;28;20482;-64
2024/01/03 08:33:45;;;;;;;5.30;1.85;;;8.90;99.90;;;;;;5052916;28;20049;-64
2024/01/03 08:36:13;;;;;;;5.40;1.00;;;8.90;99.90;;;;;;5026712;28;20084;-64
2024/01/03 08:38:39;;;;;;;18.98;1.85;;;8.90;99.90;;;;;;5050041;28;20468;-64
2024/01/03 08:41:18;;;;;;;3.05;0.55;;;8.90;99.90;;;;;;5044836;28;20040;-64
2024/01/03 08:43:45;;;;;;;8.98;1.75;;;8.90;99.90;;;;;;5044485;28;20049;-64
2024/01/03 08:46:10;;;;;;;11.13;2.38;;;8.90;99.90;;;;;;5039996;28;20042;-64
2024/01/03 08:48:43;;;;;;;6.35;1.48;;;9.00;99.90;;;;;;5049774;28;20048;-64
2024/01/03 08:51:13;;;;;;;3.25;0.82;;;9.00;99.90;;;;;;5027302;28;20502;-64
2024/01/03 08:53:40;;;;;;;10.60;1.42;;;8.90;99.90;;;;;;5030483;28;20048;-64
2024/01/03 08:56:15;;;;;;;9.65;1.92;;;8.90;99.90;;;;;;5043646;28;20043;-64
2024/01/03 08:58:42;;;;;;;14.13;2.60;;;8.90;99.90;;;;;;5047053;28;20045;-64
2024/01/03 09:01:10;;;;;;;14.15;1.90;;;8.90;99.90;;;;;;5048253;28;20048;-64
2024/01/03 09:03:36;;;;;;;6.97;1.15;;;8.80;99.90;;;;;;5032855;28;20048;-64
2024/01/03 09:06:06;;;;;;;19.25;1.83;;;8.80;99.90;;;;;;5047222;28;20505;-64
2024/01/03 09:08:31;;;;;;;8.27;0.90;;;8.80;99.90;;;;;;5043937;28;20052;-64
2024/01/03 09:10:57;;;;;;;12.82;1.95;;;8.90;99.90;;;;;;5040139;28;20044;-64
2024/01/03 09:13:23;;;;;;;1.05;0.60;;;8.90;99.90;;;;;;5031863;28;20059;-64
2024/01/03 09:15:48;;;;;;;7.07;0.68;;;8.90;99.90;;;;;;5045662;28;20134;-64
2024/01/03 09:18:14;;;;;;;2.05;0.77;;;8.90;99.90;;;;;;5048598;28;20059;-64
2024/01/03 09:20:40;;;;;;;4.28;0.77;;;8.80;99.90;;;;;;5024898;28;20041;-64
2024/01/03 09:23:06;;;;;;;3.97;0.95;;;8.90;99.90;;;;;;5057940;28;20040;-64
2024/01/03 09:25:31;;;;;;;7.57;1.35;;;8.90;99.90;;;;;;5043503;28;20064;-64
2024/01/03 09:27:57;;;;;;;0.80;0.40;;;9.00;99.90;;;;;;5009709;28;20122;-64
2024/01/03 09:30:24;;;;;;;0.22;0.22;;;9.00;99.90;;;;;;5046301;28;20041;-64
2024/01/03 09:32:50;;;;;;;0.40;0.40;;;9.00;99.90;;;;;;5048391;28;20041;-64
2024/01/03 09:35:16;;;;;;;1.13;0.68;;;9.00;99.90;;;;;;5042581;28;20044;-64
2024/01/03 09:37:41;;;;;;;4.47;0.85;;;9.00;99.90;;;;;;5047120;28;20033;-64
2024/01/03 09:40:09;;;;;;;8.88;1.17;;;9.00;99.90;;;;;;5043307;28;20049;-64
2024/01/03 09:42:36;;;;;;;2.72;0.80;;;9.10;99.90;;;;;;5022411;28;20251;-64
2024/01/03 09:45:03;;;;;;;3.08;0.57;;;9.10;99.90;;;;;;5027124;28;20041;-64
2024/01/03 09:47:29;;;;;;;14.05;1.92;;;9.10;99.90;;;;;;5019576;28;20059;-65
2024/01/03 09:49:55;;;;;;;10.68;1.55;;;9.20;99.90;;;;;;5050537;28;20052;-64
2024/01/03 09:52:21;;;;;;;8.35;1.95;;;9.20;99.90;;;;;;5044662;28;20039;-64
2024/01/03 09:54:47;;;;;;;17.83;1.50;;;9.20;99.90;;;;;;5043330;28;20053;-64
2024/01/03 09:57:14;;;;;;;18.38;1.95;;;9.10;99.90;;;;;;5047943;28;20083;-64
2024/01/03 09:59:40;;;;;;;15.80;1.85;;;9.10;99.90;;;;;;5040767;28;20441;-64
2024/01/03 10:02:06;;;;;;;6.13;1.30;;;9.10;99.90;;;;;;5044632;28;20143;-64
2024/01/03 10:04:33;;;;;;;0.50;0.50;;;9.10;99.90;;;;;;4989483;28;20052;-64
2024/01/03 10:07:01;;;;;;;2.92;0.90;;;9.00;99.90;;;;;;5032564;28;20362;-64
2024/01/03 10:09:41;;;;;;;2.97;0.68;;;9.00;99.90;;;;;;5011605;28;20071;-64
2024/01/03 10:12:19;;;;;;;6.13;1.02;;;9.00;99.90;;;;;;5040927;28;20074;-64
2024/01/03 10:14:45;;;;;;;4.43;0.60;;;9.00;99.90;;;;;;5029876;28;20045;-64
2024/01/03 10:17:11;;;;;;;3.70;0.52;;;9.00;99.90;;;;;;5041570;28;20462;-64
2024/01/03 10:19:37;;;;;;;1.45;0.77;;;8.90;99.90;;;;;;5037761;28;20139;-64
2024/01/03 10:22:04;;;;;;;3.88;1.05;;;9.00;99.90;;;;;;5021134;28;20430;-64
2024/01/03 10:24:31;;;;;;;2.70;0.52;;;9.00;99.90;;;;;;5053309;28;20055;-64
2024/01/03 10:27:10;;;;;;;3.95;1.17;;;9.00;99.90;;;;;;5024025;28;20068;-64
2024/01/03 10:29:37;;;;;;;0.88;0.30;;;9.00;99.90;;;;;;5035316;28;20036;-64
2024/01/03 10:32:05;;;;;;;0.80;0.35;;;9.00;99.90;;;;;;5040894;28;20148;-64
2024/01/03 10:34:31;;;;;;;9.15;1.08;;;9.00;99.90;;;;;;5045283;28;20053;-64
2024/01/03 10:36:58;;;;;;;4.82;1.02;;;9.00;99.90;;;;;;5046510;28;20064;-64
2024/01/03 10:39:27;;;;;;;4.95;0.52;;;9.00;99.90;;;;;;5021678;28;20521;-64
2024/01/03 10:41:54;;;;;;;0.57;0.50;;;9.10;99.90;;;;;;5042400;28;20076;-64
2024/01/03 10:44:21;;;;;;;1.08;0.75;;;9.10;99.90;;;;;;5037848;28;20284;-63
2024/01/03 10:46:48;;;;;;;2.63;0.50;;;9.10;99.90;;;;;;5042055;28;20045;-64
2024/01/03 10:49:15;;;;;;;11.70;1.95;;;9.20;99.90;;;;;;5017138;28;20045;-64
2024/01/03 10:51:45;;;;;;;5.53;0.55;;;9.20;99.90;;;;;;5045458;28;20360;-64
2024/01/03 10:54:16;;;;;;;4.70;1.00;;;9.20;99.90;;;;;;5048271;28;20060;-64
2024/01/03 10:56:48;;;;;;;5.75;0.82;;;9.20;99.90;;;;;;5043815;28;20377;-64
2024/01/03 10:59:14;;;;;;;10.25;1.50;;;9.20;99.90;;;;;;5030354;28;20053;-64
2024/01/03 11:01:55;;;;;;;21.13;3.13;;;9.10;99.90;;;;;;5042751;28;20125;-64
2024/01/03 11:04:32;;;;;;;7.13;1.40;;;9.00;99.90;;;;;;5045972;28;20156;-64
2024/01/03 11:07:09;;;;;;;1.80;0.30;;;9.00;99.90;;;;;;5049969;28;20454;-64
2024/01/03 11:09:35;;;;;;;2.88;0.82;;;8.90;99.90;;;;;;5041257;28;20037;-64
2024/01/03 11:12:12;;;;;;;4.68;1.33;;;8.80;99.90;;;;;;5041225;28;20088;-64
2024/01/03 11:14:38;;;;;;;4.65;0.85;;;8.80;99.90;;;;;;5034989;28;20045;-64
2024/01/03 11:17:06;;;;;;;2.58;0.73;;;8.80;99.90;;;;;;5049186;28;20036;-64
2024/01/03 11:19:33;;;;;;;6.72;1.08;;;8.70;99.90;;;;;;5035969;28;20057;-64
2024/01/03 11:22:02;;;;;;;10.18;1.15;;;8.70;99.90;;;;;;5044922;28;20346;-64
2024/01/03 11:24:28;;;;;;;11.25;1.80;;;8.80;99.90;;;;;;5046373;28;20585;-64
2024/01/03 11:26:54;;;;;;;6.78;0.55;;;8.80;99.90;;;;;;5050074;28;20056;-64
2024/01/03 11:29:56;;;;;;;8.35;1.35;;;8.90;99.90;;;;;;5027057;28;20102;-64
2024/01/03 11:32:32;;;;;;;5.15;1.00;;;8.90;99.90;;;;;;5020953;28;20060;-64
2024/01/03 11:34:59;;;;;;;2.22;0.70;;;9.10;99.90;;;;;;5048612;28;20047;-64
2024/01/03 11:37:25;;;;;;;4.82;0.85;;;9.20;99.90;;;;;;5040843;28;20045;-64
2024/01/03 11:39:56;;;;;;;15.35;1.38;;;9.40;99.90;;;;;;5044756;28;20044;-64
2024/01/03 11:42:38;;;;;;;0.95;0.47;;;9.60;99.90;;;;;;5039732;28;20520;-64
2024/01/03 11:45:15;;;;;;;3.60;0.73;;;9.80;99.90;;;;;;5042486;28;20056;-63
2024/01/03 11:47:46;;;;;;;3.53;0.52;;;9.90;99.90;;;;;;5011272;28;20617;-64
2024/01/03 11:50:14;;;;;;;9.73;1.10;;;10.00;99.90;;;;;;5044033;28;20503;-64
2024/01/03 11:52:45;;;;;;;1.70;0.60;;;10.20;99.90;;;;;;5045587;28;20044;-64
2024/01/03 11:55:16;;;;;;;1.58;0.52;;;10.30;99.90;;;;;;5028268;28;20041;-64
2024/01/03 11:57:43;;;;;;;5.05;1.85;;;10.30;99.90;;;;;;5048295;28;20045;-64
2024/01/03 12:00:11;;;;;;;6.18;0.75;;;10.20;99.90;;;;;;5028184;28;20053;-64
2024/01/03 12:02:37;;;;;;;12.57;1.88;;;10.20;99.90;;;;;;5022188;28;20037;-64
2024/01/03 12:05:06;;;;;;;6.95;1.85;;;10.30;99.90;;;;;;5046571;28;20045;-64
2024/01/03 12:07:36;;;;;;;2.70;0.55;;;10.30;99.90;;;;;;5045134;28;20033;-64
2024/01/03 12:10:03;;;;;;;1.85;0.30;;;10.30;99.90;;;;;;5028106;28;20595;-64
2024/01/03 12:12:35;;;;;;;7.95;1.35;;;10.30;99.90;;;;;;5044126;28;20043;-64
2024/01/03 12:15:01;;;;;;;17.75;2.75;;;10.30;99.90;;;;;;5045476;28;20048;-64
2024/01/03 12:17:32;;;;;;;6.55;0.98;;;10.20;99.90;;;;;;5025761;28;20045;-64
2024/01/03 12:20:13;;;;;;;4.95;0.85;;;10.10;99.90;;;;;;5045371;28;20036;-64
2024/01/03 12:22:39;;;;;;;9.70;1.77;;;10.10;99.90;;;;;;5038984;28;20052;-64
2024/01/03 12:25:05;;;;;;;8.15;1.23;;;10.10;99.90;;;;;;5045634;28;20134;-64
2024/01/03 12:27:33;;;;;;;4.35;0.95;;;10.20;99.90;;;;;;5044310;28;20061;-63
2024/01/03 12:30:18;;;;;;;5.07;1.05;;;10.20;99.90;;;;;;5044526;28;20115;-64
2024/01/03 12:32:47;;;;;;;7.78;1.73;;;10.20;99.90;;;;;;5041190;28;20049;-64
2024/01/03 12:35:13;;;;;;;3.40;0.68;;;10.20;99.90;;;;;;5025562;28;20041;-64
2024/01/03 12:37:46;;;;;;;4.93;0.65;;;10.20;99.90;;;;;;5044123;28;20045;-64
2024/01/03 12:40:14;;;;;;;5.53;1.05;;;10.20;99.90;;;;;;5034652;28;20056;-65
2024/01/03 12:42:41;;;;;;;8.90;1.40;;;10.20;99.90;;;;;;5043041;28;20574;-64
2024/01/03 12:45:07;;;;;;;6.32;1.13;;;10.10;99.90;;;;;;5044565;28;20045;-64
2024/01/03 12:47:33;;;;;;;3.40;0.68;;;10.10;99.90;;;;;;5043410;28;20037;-64
2024/01/03 12:49:58;;;;;;;8.07;1.45;;;10.10;99.90;;;;;;5044556;28;20044;-63
2024/01/03 12:52:29;;;;;;;9.77;1.55;;;10.20;99.90;;;;;;5042678;28;20094;-64
2024/01/03 12:54:55;;;;;;;2.05;0.60;;;10.30;99.90;;;;;;5043963;28;20095;-64